createdAt,value
2018-03-23T00:02:06.392Z,6.10
2018-03-23T00:04:34.002Z,6.10
2018-03-23T00:07:01.630Z,5.90
2018-03-23T00:09:29.960Z,5.90
2018-03-23T00:11:57.546Z,5.90
2018-03-23T00:14:25.181Z,5.90
2018-03-23T00:16:52.781Z,6.00
2018-03-23T00:19:21.645Z,6.00
2018-03-23T00:21:49.289Z,6.00
2018-03-23T00:24:16.915Z,6.00
2018-03-23T00:26:44.571Z,6.00
2018-03-23T00:29:12.178Z,6.00
2018-03-23T00:31:40.940Z,6.00
2018-03-23T00:34:08.662Z,6.00
2018-03-23T00:36:36.999Z,6.00
2018-03-23T00:39:05.386Z,5.90
2018-03-23T00:41:32.969Z,5.90
2018-03-23T00:44:00.662Z,5.90
2018-03-23T00:46:28.273Z,5.90
2018-03-23T00:48:56.671Z,5.90
2018-03-23T00:51:24.373Z,5.90
2018-03-23T00:53:51.970Z,5.90
2018-03-23T00:56:33.085Z,5.90
2018-03-23T00:59:10.640Z,5.70
2018-03-23T01:01:56.428Z,5.80
2018-03-23T01:04:37.310Z,5.90
2018-03-23T01:07:18.454Z,5.70
2018-03-23T01:09:47.502Z,5.80
2018-03-23T01:12:15.067Z,5.80
2018-03-23T01:14:42.664Z,5.80
2018-03-23T01:17:10.294Z,5.90
2018-03-23T01:19:38.655Z,5.90
2018-03-23T01:22:12.761Z,5.90
2018-03-23T01:24:40.389Z,5.90
2018-03-23T01:27:08.038Z,6.00
2018-03-23T01:29:35.642Z,6.00
2018-03-23T01:32:03.218Z,6.00
2018-03-23T01:34:30.874Z,6.00
2018-03-23T01:36:59.357Z,5.90
2018-03-23T01:39:27.749Z,6.00
2018-03-23T01:41:56.340Z,6.00
2018-03-23T01:44:25.793Z,5.90
2018-03-23T01:46:53.469Z,6.00
2018-03-23T01:49:21.061Z,5.90
2018-03-23T01:51:49.492Z,5.80
2018-03-23T01:54:17.165Z,5.80
2018-03-23T01:56:44.958Z,5.50
2018-03-23T01:59:13.321Z,5.60
2018-03-23T02:01:40.950Z,5.70
2018-03-23T02:04:08.524Z,5.70
2018-03-23T02:06:36.141Z,5.70
2018-03-23T02:09:03.741Z,5.80
2018-03-23T02:11:31.390Z,5.90
2018-03-23T02:13:59.052Z,5.80
2018-03-23T02:16:26.665Z,5.80
2018-03-23T02:18:54.253Z,5.80
2018-03-23T02:21:22.791Z,5.90
2018-03-23T02:23:51.281Z,6.00
2018-03-23T02:26:19.535Z,6.00
2018-03-23T02:28:47.124Z,5.90
2018-03-23T02:31:14.738Z,5.80
2018-03-23T02:33:42.539Z,5.60
2018-03-23T02:36:10.244Z,5.60
2018-03-23T02:38:37.877Z,5.80
2018-03-23T02:41:05.497Z,5.60
2018-03-23T02:43:33.108Z,5.60
2018-03-23T02:46:01.459Z,5.70
2018-03-23T02:48:29.324Z,5.70
2018-03-23T02:50:57.352Z,5.50
2018-03-23T02:53:25.141Z,5.60
2018-03-23T02:55:52.756Z,5.70
2018-03-23T02:58:20.695Z,5.70
2018-03-23T03:00:48.352Z,5.80
2018-03-23T03:03:16.018Z,5.80
2018-03-23T03:05:43.777Z,5.80
2018-03-23T03:08:11.418Z,5.60
2018-03-23T03:10:39.288Z,5.70
2018-03-23T03:13:06.925Z,5.80
2018-03-23T03:15:34.523Z,5.80
2018-03-23T03:18:02.128Z,5.80
2018-03-23T03:20:29.725Z,5.80
2018-03-23T03:22:57.410Z,5.80
2018-03-23T03:25:25.089Z,5.80
2018-03-23T03:27:52.716Z,5.60
2018-03-23T03:30:20.606Z,5.60
2018-03-23T03:32:48.228Z,5.90
2018-03-23T03:35:16.562Z,5.90
2018-03-23T03:37:44.234Z,5.90
2018-03-23T03:40:12.612Z,8.90
2018-03-23T03:42:41.045Z,5.90
2018-03-23T03:45:08.661Z,6.00
2018-03-23T03:47:36.310Z,5.90
2018-03-23T03:50:03.970Z,5.90
2018-03-23T03:52:32.509Z,5.90
2018-03-23T03:55:00.292Z,5.90
2018-03-23T03:57:27.880Z,6.00
2018-03-23T03:59:55.598Z,6.00
2018-03-23T04:02:23.208Z,5.70
2018-03-23T04:04:51.956Z,5.90
2018-03-23T04:07:20.013Z,5.90
2018-03-23T04:09:47.837Z,5.90
2018-03-23T04:12:16.205Z,5.80
2018-03-23T04:14:45.375Z,5.90
2018-03-23T04:17:12.976Z,5.90
2018-03-23T04:19:40.993Z,5.90
2018-03-23T04:22:09.386Z,4.30
2018-03-23T04:24:37.047Z,6.00
2018-03-23T04:27:04.631Z,5.90
2018-03-23T04:29:32.247Z,5.90
2018-03-23T04:32:00.021Z,6.00
2018-03-23T04:34:28.400Z,6.00
2018-03-23T04:36:56.760Z,6.00
2018-03-23T04:39:25.272Z,5.90
2018-03-23T04:41:53.632Z,5.90
2018-03-23T04:44:21.751Z,5.90
2018-03-23T04:46:49.372Z,6.00
2018-03-23T04:49:17.750Z,6.00
2018-03-23T04:51:45.343Z,6.10
2018-03-23T04:54:14.502Z,6.10
2018-03-23T04:56:42.971Z,6.10
2018-03-23T04:59:10.593Z,6.20
2018-03-23T05:01:38.982Z,6.30
2018-03-23T05:04:07.698Z,6.20
2018-03-23T05:06:35.317Z,6.20
2018-03-23T05:09:02.954Z,6.20
2018-03-23T05:11:30.986Z,6.20
2018-03-23T05:13:59.392Z,6.20
2018-03-23T05:16:27.020Z,6.20
2018-03-23T05:18:55.491Z,8.70
2018-03-23T05:21:23.938Z,6.20
2018-03-23T05:23:51.573Z,6.20
2018-03-23T05:26:19.707Z,6.20
2018-03-23T05:28:48.057Z,6.10
2018-03-23T05:31:16.147Z,6.10
2018-03-23T05:33:43.742Z,6.10
2018-03-23T05:36:11.484Z,6.10
2018-03-23T05:38:39.825Z,6.20
2018-03-23T05:41:08.268Z,6.20
2018-03-23T05:43:35.912Z,6.20
2018-03-23T05:46:04.332Z,6.20
2018-03-23T05:48:32.902Z,6.10
2018-03-23T05:51:00.566Z,6.10
2018-03-23T05:53:28.230Z,6.00
2018-03-23T05:55:56.248Z,6.10
2018-03-23T05:58:24.624Z,6.10
2018-03-23T06:00:52.268Z,6.20
2018-03-23T06:03:19.900Z,6.20
2018-03-23T06:05:47.709Z,6.10
2018-03-23T06:08:15.741Z,6.10
2018-03-23T06:10:44.198Z,6.10
2018-03-23T06:13:11.869Z,6.10
2018-03-23T06:15:40.247Z,5.90
2018-03-23T06:18:07.914Z,5.50
2018-03-23T06:20:36.674Z,5.60
2018-03-23T06:23:04.745Z,5.60
2018-03-23T06:25:33.413Z,5.90
2018-03-23T06:28:01.868Z,6.00
2018-03-23T06:30:29.637Z,6.20
2018-03-23T06:32:57.400Z,6.40
2018-03-23T06:35:25.163Z,6.40
2018-03-23T06:37:52.785Z,6.30
2018-03-23T06:40:21.170Z,6.40
2018-03-23T06:42:49.395Z,6.30
2018-03-23T06:45:16.985Z,6.10
2018-03-23T06:47:44.742Z,6.30
2018-03-23T06:50:13.871Z,6.30
2018-03-23T06:52:41.482Z,6.50
2018-03-23T06:55:09.170Z,6.60
2018-03-23T06:57:36.800Z,6.80
2018-03-23T07:00:04.389Z,6.90
2018-03-23T07:02:33.215Z,7.00
2018-03-23T07:05:00.807Z,7.10
2018-03-23T07:07:28.449Z,7.10
2018-03-23T07:09:56.081Z,7.00
2018-03-23T07:12:23.674Z,6.80
2018-03-23T07:14:52.274Z,6.70
2018-03-23T07:17:19.918Z,6.60
2018-03-23T07:19:47.551Z,6.70
2018-03-23T07:22:15.556Z,6.70
2018-03-23T07:24:43.347Z,6.90
2018-03-23T07:27:10.994Z,6.70
2018-03-23T07:29:38.664Z,6.90
2018-03-23T07:32:07.019Z,6.60
2018-03-23T07:34:34.912Z,6.60
2018-03-23T07:37:02.531Z,6.60
2018-03-23T07:39:30.271Z,7.00
2018-03-23T07:41:57.896Z,7.10
2018-03-23T07:44:25.665Z,7.10
2018-03-23T07:46:53.376Z,7.40
2018-03-23T07:49:20.980Z,7.40
2018-03-23T07:51:48.554Z,7.20
2018-03-23T07:54:17.087Z,7.20
2018-03-23T07:56:45.972Z,7.20
2018-03-23T07:59:13.602Z,7.10
